sensor_id;sensor_type;location;lat;lon;timestamp;pressure;altitude;pressure_sealevel;temperature;humidity
74218;BME280;62579;47.288;18.646;2022-08-02T00:00:14;99773.09;;;21.15;60.88
74218;BME280;62579;47.288;18.646;2022-08-02T00:02:41;99776.34;;;21.21;60.53
74218;BME280;62579;47.288;18.646;2022-08-02T00:05:07;99767.84;;;21.19;60.39
74218;BME280;62579;47.288;18.646;2022-08-02T00:07:33;99760.97;;;21.11;60.10
74218;BME280;62579;47.288;18.646;2022-08-02T00:09:59;99765.19;;;21.12;60.23
74218;BME280;62579;47.288;18.646;2022-08-02T00:12:24;99772.69;;;21.19;60.14
74218;BME280;62579;47.288;18.646;2022-08-02T00:14:49;99770.97;;;21.23;59.88
74218;BME280;62579;47.288;18.646;2022-08-02T00:17:15;99782.25;;;21.35;59.28
74218;BME280;62579;47.288;18.646;2022-08-02T00:19:40;99769.72;;;21.34;59.26
74218;BME280;62579;47.288;18.646;2022-08-02T00:22:05;99782.72;;;21.41;58.96
74218;BME280;62579;47.288;18.646;2022-08-02T00:24:31;99770.72;;;21.55;58.52
74218;BME280;62579;47.288;18.646;2022-08-02T00:26:56;99766.41;;;21.62;58.37
74218;BME280;62579;47.288;18.646;2022-08-02T00:29:22;99770.94;;;21.67;58.30
74218;BME280;62579;47.288;18.646;2022-08-02T00:31:47;99770.50;;;21.71;58.50
74218;BME280;62579;47.288;18.646;2022-08-02T00:34:12;99762.53;;;21.75;58.15
74218;BME280;62579;47.288;18.646;2022-08-02T00:36:38;99770.50;;;21.71;58.35
74218;BME280;62579;47.288;18.646;2022-08-02T00:39:04;99766.56;;;21.64;58.59
74218;BME280;62579;47.288;18.646;2022-08-02T00:41:29;99775.19;;;21.24;59.85
74218;BME280;62579;47.288;18.646;2022-08-02T00:43:56;99772.75;;;21.11;60.00
74218;BME280;62579;47.288;18.646;2022-08-02T00:46:21;99778.59;;;20.98;60.44
74218;BME280;62579;47.288;18.646;2022-08-02T00:48:47;99780.37;;;21.03;60.45
74218;BME280;62579;47.288;18.646;2022-08-02T00:51:13;99768.94;;;21.07;60.44
74218;BME280;62579;47.288;18.646;2022-08-02T00:53:39;99775.41;;;20.84;61.04
74218;BME280;62579;47.288;18.646;2022-08-02T00:56:05;99780.06;;;20.82;61.27
74218;BME280;62579;47.288;18.646;2022-08-02T00:58:30;99775.16;;;20.90;60.81
74218;BME280;62579;47.288;18.646;2022-08-02T01:00:55;99781.03;;;20.94;60.79
74218;BME280;62579;47.288;18.646;2022-08-02T01:03:22;99776.31;;;21.04;60.66
74218;BME280;62579;47.288;18.646;2022-08-02T01:05:48;99781.06;;;21.11;60.56
74218;BME280;62579;47.288;18.646;2022-08-02T01:08:14;99776.00;;;21.17;60.44
74218;BME280;62579;47.288;18.646;2022-08-02T01:10:39;99783.16;;;21.20;60.24
74218;BME280;62579;47.288;18.646;2022-08-02T01:13:05;99777.97;;;21.07;60.17
74218;BME280;62579;47.288;18.646;2022-08-02T01:15:32;99784.56;;;20.94;60.83
74218;BME280;62579;47.288;18.646;2022-08-02T01:18:09;99788.28;;;20.72;61.63
74218;BME280;62579;47.288;18.646;2022-08-02T01:21:00;99793.56;;;20.78;61.46
74218;BME280;62579;47.288;18.646;2022-08-02T01:29:28;99792.50;;;20.90;61.61
74218;BME280;62579;47.288;18.646;2022-08-02T01:32:07;99792.75;;;20.85;61.62
74218;BME280;62579;47.288;18.646;2022-08-02T01:37:20;99801.59;;;20.66;62.33
74218;BME280;62579;47.288;18.646;2022-08-02T01:39:56;99801.03;;;20.68;62.48
74218;BME280;62579;47.288;18.646;2022-08-02T01:42:26;99810.47;;;20.65;62.71
74218;BME280;62579;47.288;18.646;2022-08-02T01:44:53;99805.38;;;20.78;62.64
74218;BME280;62579;47.288;18.646;2022-08-02T01:47:25;99802.91;;;20.82;62.46
74218;BME280;62579;47.288;18.646;2022-08-02T01:49:53;99810.72;;;20.76;62.64
74218;BME280;62579;47.288;18.646;2022-08-02T01:52:20;99811.13;;;20.73;62.73
74218;BME280;62579;47.288;18.646;2022-08-02T01:57:20;99810.31;;;20.80;62.89
74218;BME280;62579;47.288;18.646;2022-08-02T01:59:48;99800.81;;;20.90;62.55
74218;BME280;62579;47.288;18.646;2022-08-02T02:02:15;99800.50;;;20.86;62.71
74218;BME280;62579;47.288;18.646;2022-08-02T02:04:43;99807.16;;;20.83;62.82
74218;BME280;62579;47.288;18.646;2022-08-02T02:07:12;99805.69;;;20.82;63.10
74218;BME280;62579;47.288;18.646;2022-08-02T02:09:40;99810.91;;;20.78;63.12
74218;BME280;62579;47.288;18.646;2022-08-02T02:12:08;99814.53;;;20.64;63.71
74218;BME280;62579;47.288;18.646;2022-08-02T02:14:37;99814.75;;;20.58;63.87
74218;BME280;62579;47.288;18.646;2022-08-02T02:17:03;99812.88;;;20.44;64.50
74218;BME280;62579;47.288;18.646;2022-08-02T02:19:32;99807.56;;;20.38;64.66
74218;BME280;62579;47.288;18.646;2022-08-02T02:21:58;99816.75;;;20.41;64.81
74218;BME280;62579;47.288;18.646;2022-08-02T02:24:23;99816.75;;;20.41;64.86
74218;BME280;62579;47.288;18.646;2022-08-02T02:26:50;99812.19;;;20.35;64.73
74218;BME280;62579;47.288;18.646;2022-08-02T02:29:15;99803.69;;;20.41;64.74
74218;BME280;62579;47.288;18.646;2022-08-02T02:31:43;99807.88;;;20.42;64.54
74218;BME280;62579;47.288;18.646;2022-08-02T02:34:17;99806.75;;;20.45;64.38
74218;BME280;62579;47.288;18.646;2022-08-02T02:36:49;99806.44;;;20.41;64.68
74218;BME280;62579;47.288;18.646;2022-08-02T02:39:19;99803.09;;;20.43;64.81
74218;BME280;62579;47.288;18.646;2022-08-02T02:41:47;99807.16;;;20.42;64.74
74218;BME280;62579;47.288;18.646;2022-08-02T02:44:18;99805.88;;;20.43;64.62
74218;BME280;62579;47.288;18.646;2022-08-02T02:46:45;99804.75;;;20.46;64.45
74218;BME280;62579;47.288;18.646;2022-08-02T02:49:13;99807.66;;;20.48;64.40
74218;BME280;62579;47.288;18.646;2022-08-02T02:51:41;99803.59;;;20.49;64.45
74218;BME280;62579;47.288;18.646;2022-08-02T02:54:08;99813.81;;;20.38;64.82
74218;BME280;62579;47.288;18.646;2022-08-02T02:56:37;99808.34;;;20.31;64.64
74218;BME280;62579;47.288;18.646;2022-08-02T02:59:06;99817.00;;;20.35;64.84
74218;BME280;62579;47.288;18.646;2022-08-02T03:01:33;99812.59;;;20.32;64.66
74218;BME280;62579;47.288;18.646;2022-08-02T03:04:01;99805.28;;;20.19;65.36
74218;BME280;62579;47.288;18.646;2022-08-02T03:06:27;99801.50;;;20.07;65.76
74218;BME280;62579;47.288;18.646;2022-08-02T03:08:53;99793.22;;;20.07;65.76
74218;BME280;62579;47.288;18.646;2022-08-02T03:11:19;99800.94;;;20.09;65.69
74218;BME280;62579;47.288;18.646;2022-08-02T03:13:45;99794.59;;;19.91;66.36
74218;BME280;62579;47.288;18.646;2022-08-02T03:16:11;99790.72;;;19.62;67.34
74218;BME280;62579;47.288;18.646;2022-08-02T03:18:39;99791.53;;;19.47;68.04
74218;BME280;62579;47.288;18.646;2022-08-02T03:21:06;99809.56;;;19.48;68.10
74218;BME280;62579;47.288;18.646;2022-08-02T03:23:32;99802.06;;;19.41;68.37
74218;BME280;62579;47.288;18.646;2022-08-02T03:25:58;99798.34;;;19.46;68.13
74218;BME280;62579;47.288;18.646;2022-08-02T03:28:24;99799.59;;;19.53;67.99
74218;BME280;62579;47.288;18.646;2022-08-02T03:30:49;99799.59;;;19.53;68.09
74218;BME280;62579;47.288;18.646;2022-08-02T03:33:15;99797.16;;;19.64;67.52
74218;BME280;62579;47.288;18.646;2022-08-02T03:35:42;99804.44;;;19.77;66.98
74218;BME280;62579;47.288;18.646;2022-08-02T03:38:09;99807.72;;;19.83;66.72
74218;BME280;62579;47.288;18.646;2022-08-02T03:40:37;99806.22;;;19.90;66.72
74218;BME280;62579;47.288;18.646;2022-08-02T03:43:03;99812.09;;;19.94;66.68
74218;BME280;62579;47.288;18.646;2022-08-02T03:45:29;99818.72;;;19.91;66.56
74218;BME280;62579;47.288;18.646;2022-08-02T03:47:55;99822.00;;;19.64;67.54
74218;BME280;62579;47.288;18.646;2022-08-02T03:50:22;99817.37;;;19.67;67.52
74218;BME280;62579;47.288;18.646;2022-08-02T03:52:48;99822.09;;;19.82;66.97
74218;BME280;62579;47.288;18.646;2022-08-02T03:55:13;99824.03;;;19.96;66.52
74218;BME280;62579;47.288;18.646;2022-08-02T03:57:40;99816.84;;;20.01;66.40
74218;BME280;62579;47.288;18.646;2022-08-02T04:00:11;99816.09;;;20.00;66.46
74218;BME280;62579;47.288;18.646;2022-08-02T04:02:37;99816.09;;;20.00;66.57
74218;BME280;62579;47.288;18.646;2022-08-02T04:05:04;99817.53;;;20.09;66.26
74218;BME280;62579;47.288;18.646;2022-08-02T04:07:29;99820.22;;;20.16;66.11
74218;BME280;62579;47.288;18.646;2022-08-02T04:09:54;99821.44;;;20.30;65.76
74218;BME280;62579;47.288;18.646;2022-08-02T04:12:20;99831.28;;;20.16;66.38
74218;BME280;62579;47.288;18.646;2022-08-02T04:14:45;99831.88;;;20.07;66.86
74218;BME280;62579;47.288;18.646;2022-08-02T04:17:12;99834.37;;;20.20;66.41
74218;BME280;62579;47.288;18.646;2022-08-02T04:20:01;99837.28;;;20.30;66.16
74218;BME280;62579;47.288;18.646;2022-08-02T04:22:36;99843.41;;;20.21;67.37
74218;BME280;62579;47.288;18.646;2022-08-02T04:25:06;99849.75;;;20.38;66.60
74218;BME280;62579;47.288;18.646;2022-08-02T04:27:33;99849.97;;;20.58;66.32
74218;BME280;62579;47.288;18.646;2022-08-02T04:30:01;99861.66;;;20.73;65.57
74218;BME280;62579;47.288;18.646;2022-08-02T04:32:28;99852.72;;;20.82;65.05
74218;BME280;62579;47.288;18.646;2022-08-02T04:34:56;99864.28;;;20.88;64.91
74218;BME280;62579;47.288;18.646;2022-08-02T04:37:21;99862.25;;;20.89;64.74
74218;BME280;62579;47.288;18.646;2022-08-02T04:39:47;99868.03;;;21.01;64.44
74218;BME280;62579;47.288;18.646;2022-08-02T04:42:22;99864.25;;;21.13;64.20
74218;BME280;62579;47.288;18.646;2022-08-02T04:44:48;99869.31;;;21.24;64.43
74218;BME280;62579;47.288;18.646;2022-08-02T04:47:15;99867.25;;;21.25;64.11
74218;BME280;62579;47.288;18.646;2022-08-02T04:49:41;99867.91;;;21.33;63.94
74218;BME280;62579;47.288;18.646;2022-08-02T04:52:06;99873.59;;;21.52;63.71
74218;BME280;62579;47.288;18.646;2022-08-02T04:54:31;99875.06;;;21.53;64.10
74218;BME280;62579;47.288;18.646;2022-08-02T04:56:57;99877.19;;;21.62;63.99
74218;BME280;62579;47.288;18.646;2022-08-02T04:59:22;99883.69;;;21.74;63.25
74218;BME280;62579;47.288;18.646;2022-08-02T05:01:47;99885.56;;;21.72;63.15
74218;BME280;62579;47.288;18.646;2022-08-02T05:04:13;99886.78;;;21.78;63.22
74218;BME280;62579;47.288;18.646;2022-08-02T05:06:38;99891.47;;;22.02;62.73
74218;BME280;62579;47.288;18.646;2022-08-02T05:09:04;99891.78;;;22.06;62.42
74218;BME280;62579;47.288;18.646;2022-08-02T05:11:29;99886.13;;;22.14;62.17
74218;BME280;62579;47.288;18.646;2022-08-02T05:13:54;99886.28;;;22.16;62.18
74218;BME280;62579;47.288;18.646;2022-08-02T05:16:20;99897.00;;;22.29;61.64
74218;BME280;62579;47.288;18.646;2022-08-02T05:18:45;99906.56;;;22.45;61.53
74218;BME280;62579;47.288;18.646;2022-08-02T05:21:10;99889.66;;;22.51;60.69
74218;BME280;62579;47.288;18.646;2022-08-02T05:23:36;99893.87;;;22.52;60.59
74218;BME280;62579;47.288;18.646;2022-08-02T05:26:01;99900.84;;;22.43;60.89
74218;BME280;62579;47.288;18.646;2022-08-02T05:28:26;99894.78;;;22.54;60.80
74218;BME280;62579;47.288;18.646;2022-08-02T05:30:52;99900.94;;;22.62;60.43
74218;BME280;62579;47.288;18.646;2022-08-02T05:33:17;99902.22;;;22.52;60.92
74218;BME280;62579;47.288;18.646;2022-08-02T05:35:42;99903.25;;;22.56;60.75
74218;BME280;62579;47.288;18.646;2022-08-02T05:38:08;99912.56;;;22.51;60.79
74218;BME280;62579;47.288;18.646;2022-08-02T05:40:34;99900.28;;;22.71;60.28
74218;BME280;62579;47.288;18.646;2022-08-02T05:42:59;99907.72;;;22.69;60.06
74218;BME280;62579;47.288;18.646;2022-08-02T05:45:25;99914.94;;;23.01;59.72
74218;BME280;62579;47.288;18.646;2022-08-02T05:47:50;99915.28;;;23.24;59.50
74218;BME280;62579;47.288;18.646;2022-08-02T05:50:16;99907.69;;;23.24;59.38
74218;BME280;62579;47.288;18.646;2022-08-02T05:55:20;99906.56;;;23.66;58.16
74218;BME280;62579;47.288;18.646;2022-08-02T05:57:57;99913.88;;;23.52;58.03
74218;BME280;62579;47.288;18.646;2022-08-02T06:00:31;99909.91;;;23.55;58.19
74218;BME280;62579;47.288;18.646;2022-08-02T06:05:50;99898.22;;;23.66;57.69
74218;BME280;62579;47.288;18.646;2022-08-02T06:08:19;99903.47;;;23.90;56.74
74218;BME280;62579;47.288;18.646;2022-08-02T06:10:45;99899.34;;;24.01;56.16
74218;BME280;62579;47.288;18.646;2022-08-02T06:13:14;99899.47;;;24.03;56.17
74218;BME280;62579;47.288;18.646;2022-08-02T06:15:42;99908.22;;;24.28;56.27
74218;BME280;62579;47.288;18.646;2022-08-02T06:18:08;99911.00;;;24.28;55.33
74218;BME280;62579;47.288;18.646;2022-08-02T06:20:35;99913.88;;;24.40;54.96
74218;BME280;62579;47.288;18.646;2022-08-02T06:23:03;99915.34;;;24.41;55.04
74218;BME280;62579;47.288;18.646;2022-08-02T08:02:59;99895.19;;;27.90;41.58
74218;BME280;62579;47.288;18.646;2022-08-02T08:05:25;99892.25;;;27.99;41.69
74218;BME280;62579;47.288;18.646;2022-08-02T08:07:51;99904.41;;;28.04;41.72
74218;BME280;62579;47.288;18.646;2022-08-02T08:10:16;99902.81;;;27.76;41.90
74218;BME280;62579;47.288;18.646;2022-08-02T08:12:41;99913.56;;;27.93;42.33
74218;BME280;62579;47.288;18.646;2022-08-02T08:15:07;99908.47;;;28.15;41.45
74218;BME280;62579;47.288;18.646;2022-08-02T08:17:32;99908.50;;;28.28;41.70
74218;BME280;62579;47.288;18.646;2022-08-02T08:20:00;99901.97;;;28.24;41.07
74218;BME280;62579;47.288;18.646;2022-08-02T08:22:25;99904.25;;;28.41;41.69
74218;BME280;62579;47.288;18.646;2022-08-02T08:24:51;99905.50;;;28.38;40.07
74218;BME280;62579;47.288;18.646;2022-08-02T08:27:16;99916.94;;;28.55;40.68
74218;BME280;62579;47.288;18.646;2022-08-02T08:29:43;99918.25;;;28.41;40.78
74218;BME280;62579;47.288;18.646;2022-08-02T08:32:09;99916.19;;;28.55;40.13
74218;BME280;62579;47.288;18.646;2022-08-02T08:34:35;99917.00;;;28.44;40.36
74218;BME280;62579;47.288;18.646;2022-08-02T08:37:00;99913.12;;;28.63;39.57
74218;BME280;62579;47.288;18.646;2022-08-02T08:39:27;99918.63;;;28.74;40.49
74218;BME280;62579;47.288;18.646;2022-08-02T08:41:52;99919.44;;;28.63;40.53
74218;BME280;62579;47.288;18.646;2022-08-02T08:44:18;99919.78;;;28.69;39.49
74218;BME280;62579;47.288;18.646;2022-08-02T08:46:46;99914.56;;;28.91;41.07
74218;BME280;62579;47.288;18.646;2022-08-02T08:49:46;99918.91;;;28.94;38.51
74218;BME280;62579;47.288;18.646;2022-08-02T08:52:13;99921.50;;;29.17;38.73
74218;BME280;62579;47.288;18.646;2022-08-02T08:54:40;99921.50;;;29.17;38.28
74218;BME280;62579;47.288;18.646;2022-08-02T08:57:08;99915.25;;;29.18;39.16
74218;BME280;62579;47.288;18.646;2022-08-02T08:59:34;99917.63;;;29.38;37.75
74218;BME280;62579;47.288;18.646;2022-08-02T09:02:00;99924.41;;;29.33;38.72
74218;BME280;62579;47.288;18.646;2022-08-02T09:04:26;99929.34;;;29.48;38.98
74218;BME280;62579;47.288;18.646;2022-08-02T09:06:51;99923.88;;;29.36;38.26
74218;BME280;62579;47.288;18.646;2022-08-02T09:09:16;99922.63;;;29.39;37.67
74218;BME280;62579;47.288;18.646;2022-08-02T09:11:42;99918.31;;;29.52;38.33
74218;BME280;62579;47.288;18.646;2022-08-02T09:14:08;99915.06;;;29.28;37.56
74218;BME280;62579;47.288;18.646;2022-08-02T09:16:39;99923.66;;;29.32;37.29
74218;BME280;62579;47.288;18.646;2022-08-02T09:50:11;99925.56;;;29.28;35.88
74218;BME280;62579;47.288;18.646;2022-08-02T09:52:36;99929.19;;;29.30;36.26
74218;BME280;62579;47.288;18.646;2022-08-02T09:55:04;99921.12;;;29.52;35.93
74218;BME280;62579;47.288;18.646;2022-08-02T09:57:30;99919.88;;;29.55;35.11
74218;BME280;62579;47.288;18.646;2022-08-02T09:59:58;99918.66;;;29.73;36.08
74218;BME280;62579;47.288;18.646;2022-08-02T10:02:23;99919.44;;;29.90;35.39
74218;BME280;62579;47.288;18.646;2022-08-02T10:04:49;99908.50;;;29.96;35.00
74218;BME280;62579;47.288;18.646;2022-08-02T10:07:16;99901.34;;;29.93;35.70
74218;BME280;62579;47.288;18.646;2022-08-02T10:09:42;99899.09;;;30.20;35.66
74218;BME280;62579;47.288;18.646;2022-08-02T10:12:10;99905.34;;;30.34;35.05
74218;BME280;62579;47.288;18.646;2022-08-02T10:14:36;99901.37;;;30.24;35.15
74218;BME280;62579;47.288;18.646;2022-08-02T10:17:02;99895.75;;;30.24;34.62
74218;BME280;62579;47.288;18.646;2022-08-02T10:19:29;99894.66;;;30.31;35.18
74218;BME280;62579;47.288;18.646;2022-08-02T10:22:04;99889.22;;;30.66;33.93
74218;BME280;62579;47.288;18.646;2022-08-02T10:24:31;99886.37;;;30.49;34.02
74218;BME280;62579;47.288;18.646;2022-08-02T10:26:58;99886.09;;;30.43;34.50
74218;BME280;62579;47.288;18.646;2022-08-02T10:29:35;99892.34;;;30.57;34.00
74218;BME280;62579;47.288;18.646;2022-08-02T10:37:07;99893.03;;;30.73;32.64
74218;BME280;62579;47.288;18.646;2022-08-02T10:39:38;99890.78;;;30.54;33.46
74218;BME280;62579;47.288;18.646;2022-08-02T10:42:04;99896.22;;;30.65;33.31
74218;BME280;62579;47.288;18.646;2022-08-02T10:44:31;99892.88;;;30.53;33.67
74218;BME280;62579;47.288;18.646;2022-08-02T10:49:56;99890.34;;;30.59;33.66
74218;BME280;62579;47.288;18.646;2022-08-02T10:52:26;99890.38;;;30.77;32.80
74218;BME280;62579;47.288;18.646;2022-08-02T10:55:08;99872.75;;;30.59;32.69
74218;BME280;62579;47.288;18.646;2022-08-02T10:57:34;99884.69;;;30.75;32.35
74218;BME280;62579;47.288;18.646;2022-08-02T11:02:43;99880.75;;;30.98;32.49
74218;BME280;62579;47.288;18.646;2022-08-02T11:05:14;99882.25;;;31.16;32.29
74218;BME280;62579;47.288;18.646;2022-08-02T11:07:43;99872.06;;;30.91;31.75
74218;BME280;62579;47.288;18.646;2022-08-02T11:15:24;99869.00;;;30.70;32.31
74218;BME280;62579;47.288;18.646;2022-08-02T11:17:51;99873.69;;;30.97;32.36
74218;BME280;62579;47.288;18.646;2022-08-02T11:20:18;99878.09;;;31.02;32.04
74218;BME280;62579;47.288;18.646;2022-08-02T11:22:46;99885.53;;;31.11;32.60
74218;BME280;62579;47.288;18.646;2022-08-02T11:27:51;99865.13;;;31.28;31.40
74218;BME280;62579;47.288;18.646;2022-08-02T11:30:17;99861.13;;;31.33;30.57
74218;BME280;62579;47.288;18.646;2022-08-02T11:32:42;99863.81;;;31.46;30.90
74218;BME280;62579;47.288;18.646;2022-08-02T11:35:08;99860.00;;;31.22;31.13
74218;BME280;62579;47.288;18.646;2022-08-02T11:40:01;99856.75;;;30.95;31.47
74218;BME280;62579;47.288;18.646;2022-08-02T11:42:31;99860.28;;;30.46;32.55
74218;BME280;62579;47.288;18.646;2022-08-02T11:44:57;99855.63;;;30.68;33.95
74218;BME280;62579;47.288;18.646;2022-08-02T11:47:22;99856.97;;;30.67;33.88
74218;BME280;62579;47.288;18.646;2022-08-02T11:49:48;99858.94;;;30.80;34.12
74218;BME280;62579;47.288;18.646;2022-08-02T11:52:13;99860.78;;;30.58;34.53
74218;BME280;62579;47.288;18.646;2022-08-02T11:54:40;99855.91;;;30.59;34.16
74218;BME280;62579;47.288;18.646;2022-08-02T11:57:19;99865.44;;;30.52;34.49
74218;BME280;62579;47.288;18.646;2022-08-02T11:59:51;99859.16;;;30.53;34.78
74218;BME280;62579;47.288;18.646;2022-08-02T12:02:17;99855.69;;;30.70;34.19
74218;BME280;62579;47.288;18.646;2022-08-02T12:04:43;99862.22;;;31.08;33.06
74218;BME280;62579;47.288;18.646;2022-08-02T12:07:15;99852.50;;;31.29;33.27
74218;BME280;62579;47.288;18.646;2022-08-02T12:09:40;99851.63;;;31.42;33.05
74218;BME280;62579;47.288;18.646;2022-08-02T12:12:06;99858.16;;;30.96;34.20
74218;BME280;62579;47.288;18.646;2022-08-02T12:14:31;99859.09;;;31.00;34.13
74218;BME280;62579;47.288;18.646;2022-08-02T12:16:57;99861.00;;;30.80;34.06
74218;BME280;62579;47.288;18.646;2022-08-02T12:19:42;99853.97;;;30.63;33.98
74218;BME280;62579;47.288;18.646;2022-08-02T12:22:16;99853.91;;;30.30;34.49
74218;BME280;62579;47.288;18.646;2022-08-02T12:24:47;99858.38;;;30.19;34.52
74218;BME280;62579;47.288;18.646;2022-08-02T12:29:58;99846.94;;;30.31;33.95
74218;BME280;62579;47.288;18.646;2022-08-02T12:32:25;99845.25;;;30.73;33.45
74218;BME280;62579;47.288;18.646;2022-08-02T12:35:22;99843.41;;;30.95;32.89
74218;BME280;62579;47.288;18.646;2022-08-02T12:37:54;99843.97;;;31.09;32.69
74218;BME280;62579;47.288;18.646;2022-08-02T12:40:31;99847.47;;;30.59;34.08
74218;BME280;62579;47.288;18.646;2022-08-02T12:43:01;99847.66;;;30.63;34.47
74218;BME280;62579;47.288;18.646;2022-08-02T12:45:30;99846.84;;;30.45;34.94
74218;BME280;62579;47.288;18.646;2022-08-02T12:47:57;99849.19;;;30.66;34.44
74218;BME280;62579;47.288;18.646;2022-08-02T12:50:27;99845.19;;;30.55;34.33
74218;BME280;62579;47.288;18.646;2022-08-02T12:53:07;99846.22;;;30.15;35.17
74218;BME280;62579;47.288;18.646;2022-08-02T12:55:33;99836.69;;;30.53;34.43
74218;BME280;62579;47.288;18.646;2022-08-02T12:58:04;99834.75;;;30.73;33.69
74218;BME280;62579;47.288;18.646;2022-08-02T13:02:55;99834.91;;;31.28;33.09
74218;BME280;62579;47.288;18.646;2022-08-02T13:05:21;99835.00;;;31.13;32.66
74218;BME280;62579;47.288;18.646;2022-08-02T13:07:46;99837.41;;;31.03;32.77
74218;BME280;62579;47.288;18.646;2022-08-02T13:10:13;99842.25;;;30.84;33.49
74218;BME280;62579;47.288;18.646;2022-08-02T13:12:38;99838.78;;;30.86;32.93
74218;BME280;62579;47.288;18.646;2022-08-02T13:15:07;99834.88;;;30.93;33.13
74218;BME280;62579;47.288;18.646;2022-08-02T13:17:33;99836.78;;;30.88;33.01
74218;BME280;62579;47.288;18.646;2022-08-02T13:19:59;99827.28;;;31.31;32.88
74218;BME280;62579;47.288;18.646;2022-08-02T13:22:24;99826.97;;;31.40;32.79
74218;BME280;62579;47.288;18.646;2022-08-02T13:24:50;99819.13;;;31.74;31.87
74218;BME280;62579;47.288;18.646;2022-08-02T13:27:16;99813.88;;;31.84;31.59
74218;BME280;62579;47.288;18.646;2022-08-02T13:29:42;99809.69;;;32.03;31.05
74218;BME280;62579;47.288;18.646;2022-08-02T13:32:07;99813.72;;;32.18;30.46
74218;BME280;62579;47.288;18.646;2022-08-02T13:34:33;99819.59;;;31.86;31.15
74218;BME280;62579;47.288;18.646;2022-08-02T13:36:59;99815.44;;;31.70;31.69
74218;BME280;62579;47.288;18.646;2022-08-02T13:39:25;99816.63;;;31.82;31.41
74218;BME280;62579;47.288;18.646;2022-08-02T13:41:50;99813.47;;;31.55;31.06
74218;BME280;62579;47.288;18.646;2022-08-02T13:44:16;99817.00;;;31.55;31.35
74218;BME280;62579;47.288;18.646;2022-08-02T13:46:41;99820.28;;;31.32;31.57
74218;BME280;62579;47.288;18.646;2022-08-02T13:49:07;99817.66;;;31.18;31.54
74218;BME280;62579;47.288;18.646;2022-08-02T13:51:32;99808.31;;;30.96;31.30
74218;BME280;62579;47.288;18.646;2022-08-02T13:53:57;99812.34;;;30.75;32.40
74218;BME280;62579;47.288;18.646;2022-08-02T13:56:23;99803.25;;;30.92;31.51
74218;BME280;62579;47.288;18.646;2022-08-02T13:58:48;99805.59;;;31.16;31.67
74218;BME280;62579;47.288;18.646;2022-08-02T14:01:13;99801.91;;;31.29;30.96
74218;BME280;62579;47.288;18.646;2022-08-02T14:03:41;99806.69;;;31.44;30.63
74218;BME280;62579;47.288;18.646;2022-08-02T14:06:06;99796.69;;;31.57;30.57
74218;BME280;62579;47.288;18.646;2022-08-02T14:08:33;99802.84;;;31.53;29.46
74218;BME280;62579;47.288;18.646;2022-08-02T14:10:58;99803.84;;;31.24;30.10
74218;BME280;62579;47.288;18.646;2022-08-02T14:13:24;99805.25;;;30.90;30.63
74218;BME280;62579;47.288;18.646;2022-08-02T14:15:49;99811.16;;;31.14;30.24
74218;BME280;62579;47.288;18.646;2022-08-02T14:18:14;99811.63;;;31.43;30.22
74218;BME280;62579;47.288;18.646;2022-08-02T14:20:41;99794.19;;;31.47;29.88
74218;BME280;62579;47.288;18.646;2022-08-02T14:23:07;99802.44;;;31.25;30.14
74218;BME280;62579;47.288;18.646;2022-08-02T14:25:32;99796.75;;;31.59;30.58
74218;BME280;62579;47.288;18.646;2022-08-02T14:27:58;99805.72;;;31.73;30.66
74218;BME280;62579;47.288;18.646;2022-08-02T14:30:23;99798.44;;;31.85;30.83
74218;BME280;62579;47.288;18.646;2022-08-02T14:32:49;99801.47;;;31.72;30.60
74218;BME280;62579;47.288;18.646;2022-08-02T14:35:15;99805.75;;;31.37;31.13
74218;BME280;62579;47.288;18.646;2022-08-02T14:37:40;99798.03;;;31.20;31.46
74218;BME280;62579;47.288;18.646;2022-08-02T14:40:06;99807.81;;;30.84;31.70
74218;BME280;62579;47.288;18.646;2022-08-02T14:42:32;99803.91;;;31.09;31.32
74218;BME280;62579;47.288;18.646;2022-08-02T14:44:57;99795.63;;;31.30;31.09
74218;BME280;62579;47.288;18.646;2022-08-02T14:47:22;99794.50;;;31.20;31.12
74218;BME280;62579;47.288;18.646;2022-08-02T14:49:48;99795.78;;;30.99;31.14
74218;BME280;62579;47.288;18.646;2022-08-02T14:52:13;99803.06;;;30.88;31.59
74218;BME280;62579;47.288;18.646;2022-08-02T14:54:39;99805.53;;;30.80;31.08
74218;BME280;62579;47.288;18.646;2022-08-02T14:57:07;99806.72;;;30.58;31.33
74218;BME280;62579;47.288;18.646;2022-08-02T14:59:33;99802.91;;;30.51;31.15
74218;BME280;62579;47.288;18.646;2022-08-02T15:01:58;99806.12;;;30.61;31.50
74218;BME280;62579;47.288;18.646;2022-08-02T15:04:24;99811.63;;;30.75;31.48
74218;BME280;62579;47.288;18.646;2022-08-02T15:06:50;99802.72;;;30.63;30.85
74218;BME280;62579;47.288;18.646;2022-08-02T15:09:15;99802.09;;;30.82;31.42
74218;BME280;62579;47.288;18.646;2022-08-02T15:11:40;99810.19;;;30.74;31.66
74218;BME280;62579;47.288;18.646;2022-08-02T15:14:06;99806.53;;;30.87;31.37
74218;BME280;62579;47.288;18.646;2022-08-02T15:16:31;99808.22;;;30.94;31.12
74218;BME280;62579;47.288;18.646;2022-08-02T15:19:00;99807.94;;;30.88;31.46
74218;BME280;62579;47.288;18.646;2022-08-02T15:21:26;99803.59;;;31.01;31.29
74218;BME280;62579;47.288;18.646;2022-08-02T15:23:51;99806.06;;;31.10;31.24
74218;BME280;62579;47.288;18.646;2022-08-02T15:26:16;99812.50;;;30.95;31.21
74218;BME280;62579;47.288;18.646;2022-08-02T15:31:11;99819.78;;;30.84;30.83
74218;BME280;62579;47.288;18.646;2022-08-02T15:33:38;99803.34;;;31.12;30.48
74218;BME280;62579;47.288;18.646;2022-08-02T15:36:03;99806.69;;;30.91;31.39
74218;BME280;62579;47.288;18.646;2022-08-02T15:38:29;99805.28;;;30.74;31.51
74218;BME280;62579;47.288;18.646;2022-08-02T15:40:54;99807.06;;;30.83;31.20
74218;BME280;62579;47.288;18.646;2022-08-02T15:43:19;99810.69;;;30.53;31.34